createdAt,value
2022-09-23T00:01:03.680Z,99460.75
2022-09-23T00:03:31.875Z,99464.78
2022-09-23T00:06:00.637Z,99458.06
2022-09-23T00:08:27.498Z,99459.25
2022-09-23T00:10:54.543Z,99459.50
2022-09-23T00:13:21.859Z,99459.84
2022-09-23T00:15:48.609Z,99443.09
2022-09-23T00:18:15.378Z,99449.41
2022-09-23T00:20:42.380Z,99443.34
2022-09-23T00:23:09.182Z,99451.75
2022-09-23T00:25:35.911Z,99443.41
2022-09-23T00:28:03.453Z,99446.53
2022-09-23T00:30:30.413Z,99432.50
2022-09-23T00:32:57.245Z,99437.06
2022-09-23T00:35:24.225Z,99439.78
2022-09-23T00:37:51.037Z,99443.94
2022-09-23T00:40:18.062Z,99448.31
2022-09-23T00:42:49.626Z,99433.78
2022-09-23T00:45:16.961Z,99433.47
2022-09-23T00:48:02.989Z,99443.34
2022-09-23T00:50:40.108Z,99440.97
2022-09-23T00:53:09.949Z,99432.53
2022-09-23T00:55:47.207Z,99433.09
2022-09-23T00:58:16.392Z,99425.59
2022-09-23T01:00:43.106Z,99424.09
2022-09-23T01:03:10.859Z,99420.28
2022-09-23T01:05:38.903Z,99421.22
2022-09-23T01:08:07.581Z,99421.63
2022-09-23T01:10:43.660Z,99420.22
2022-09-23T01:13:24.920Z,99414.69
2022-09-23T01:16:32.819Z,99412.09
2022-09-23T01:19:30.021Z,99413.94
2022-09-23T01:22:19.758Z,99409.28
2022-09-23T01:25:27.599Z,99413.94
2022-09-23T01:28:16.277Z,99407.31
2022-09-23T01:30:46.385Z,99405.97
2022-09-23T01:33:18.969Z,99406.31
2022-09-23T01:36:01.018Z,99401.59
2022-09-23T01:38:38.504Z,99393.16
2022-09-23T01:41:13.787Z,99396.50
2022-09-23T01:44:07.089Z,99388.84
2022-09-23T01:46:42.223Z,99399.13
2022-09-23T01:49:19.638Z,99388.31
2022-09-23T01:52:17.326Z,99383.56
2022-09-23T01:54:51.491Z,99387.59
2022-09-23T01:57:29.037Z,99381.63
2022-09-23T02:00:00.844Z,99373.69
2022-09-23T02:02:32.636Z,99376.50
2022-09-23T02:05:15.093Z,99378.06
2022-09-23T02:07:46.286Z,99381.28
2022-09-23T02:10:20.319Z,99379.16
2022-09-23T02:12:49.977Z,99374.25
2022-09-23T02:15:20.206Z,99377.22
2022-09-23T02:17:54.912Z,99374.13
2022-09-23T02:20:28.480Z,99374.84
2022-09-23T02:23:03.979Z,99376.94
2022-09-23T02:25:38.051Z,99376.94
2022-09-23T02:28:26.091Z,99372.88
2022-09-23T02:31:02.463Z,99371.59
2022-09-23T02:33:36.659Z,99369.50
2022-09-23T02:36:18.193Z,99373.31
2022-09-23T02:38:47.290Z,99375.72
2022-09-23T02:41:23.302Z,99383.28
2022-09-23T02:43:56.655Z,99374.13
2022-09-23T02:46:23.923Z,99367.97
2022-09-23T02:48:53.966Z,99371.78
2022-09-23T02:51:20.708Z,99371.91
2022-09-23T02:53:48.104Z,99362.56
2022-09-23T02:56:20.415Z,99358.03
2022-09-23T02:58:48.870Z,99367.00
2022-09-23T03:01:53.119Z,99362.03
2022-09-23T03:04:43.011Z,99353.09
2022-09-23T03:07:35.891Z,99348.09
2022-09-23T03:10:26.659Z,99353.72
2022-09-23T03:13:14.262Z,99354.34
2022-09-23T03:15:48.806Z,99350.88
2022-09-23T03:18:35.224Z,99344.22
2022-09-23T03:21:06.358Z,99350.34
2022-09-23T03:23:37.339Z,99349.53
2022-09-23T03:26:23.729Z,99350.38
2022-09-23T03:28:51.039Z,99346.63
2022-09-23T03:31:18.228Z,99351.44
2022-09-23T03:33:48.774Z,99347.75
2022-09-23T03:36:36.750Z,99337.66
2022-09-23T03:39:07.002Z,99333.59
2022-09-23T03:41:39.154Z,99337.47
2022-09-23T03:44:08.449Z,99336.41
2022-09-23T03:46:36.348Z,99330.97
2022-09-23T03:49:09.728Z,99330.59
2022-09-23T03:51:36.488Z,99324.25
2022-09-23T03:54:03.339Z,99333.72
2022-09-23T03:56:30.045Z,99335.28
2022-09-23T03:58:56.780Z,99328.09
2022-09-23T04:01:23.746Z,99330.06
2022-09-23T04:03:52.199Z,99322.09
2022-09-23T04:06:19.527Z,99325.66
2022-09-23T04:08:46.130Z,99325.88
2022-09-23T04:11:12.817Z,99317.84
2022-09-23T04:13:42.376Z,99322.81
2022-09-23T04:16:09.116Z,99317.84
2022-09-23T04:18:35.818Z,99312.00
2022-09-23T04:21:02.700Z,99308.75
2022-09-23T04:23:29.313Z,99310.84
2022-09-23T04:25:55.984Z,99310.47
2022-09-23T04:28:23.120Z,99316.19
2022-09-23T04:30:49.885Z,99310.41
2022-09-23T04:33:17.376Z,99317.22
2022-09-23T04:35:44.121Z,99309.41
2022-09-23T04:38:12.421Z,99313.53
2022-09-23T04:40:39.391Z,99306.91
2022-09-23T04:43:07.812Z,99305.84
2022-09-23T04:45:36.672Z,99310.28
2022-09-23T04:48:04.154Z,99310.94
2022-09-23T04:50:34.075Z,99310.44
2022-09-23T04:53:01.054Z,99305.50
2022-09-23T04:55:27.895Z,99308.84
2022-09-23T04:57:54.907Z,99301.66
2022-09-23T05:00:23.417Z,99295.72
2022-09-23T05:02:50.903Z,99304.69
2022-09-23T05:05:22.523Z,99299.38
2022-09-23T05:07:49.616Z,99311.13
2022-09-23T05:10:16.531Z,99303.03
2022-09-23T05:12:43.235Z,99307.19
2022-09-23T05:15:10.040Z,99299.97
2022-09-23T05:17:37.545Z,99305.81
2022-09-23T05:20:04.835Z,99302.91
2022-09-23T05:22:31.830Z,99301.22
2022-09-23T05:25:00.464Z,99313.44
2022-09-23T05:27:27.319Z,99311.03
2022-09-23T05:29:54.230Z,99315.09
2022-09-23T05:32:22.080Z,99310.06
2022-09-23T05:34:48.954Z,99313.13
2022-09-23T05:37:15.614Z,99312.59
2022-09-23T05:39:42.244Z,99319.47
2022-09-23T05:42:09.511Z,99315.50
2022-09-23T05:44:36.193Z,99318.63
2022-09-23T05:47:02.974Z,99320.00
2022-09-23T05:49:48.630Z,99320.31
2022-09-23T05:52:17.386Z,99319.69
2022-09-23T05:54:44.158Z,99324.88
2022-09-23T05:57:10.899Z,99330.53
2022-09-23T05:59:38.247Z,99319.50
2022-09-23T06:02:05.050Z,99316.13
2022-09-23T06:04:31.862Z,99315.75
2022-09-23T06:07:02.916Z,99320.75
2022-09-23T06:09:35.609Z,99314.63
2022-09-23T06:12:04.647Z,99306.63
2022-09-23T06:14:31.267Z,99309.94
2022-09-23T06:16:58.177Z,99302.53
2022-09-23T06:19:25.116Z,99319.50
2022-09-23T06:21:51.869Z,99313.91
2022-09-23T06:24:22.117Z,99306.19
2022-09-23T06:26:50.514Z,99309.72
2022-09-23T06:29:18.373Z,99309.91
2022-09-23T06:31:45.242Z,99305.13
2022-09-23T06:34:14.413Z,99307.59
2022-09-23T06:36:46.245Z,99294.09
2022-09-23T06:39:14.686Z,99309.84
2022-09-23T06:41:41.382Z,99306.03
2022-09-23T06:44:08.248Z,99308.19
2022-09-23T06:46:37.052Z,99315.41
2022-09-23T06:49:03.801Z,99305.03
2022-09-23T06:51:30.598Z,99322.31
2022-09-23T06:53:57.285Z,99326.31
2022-09-23T06:56:24.498Z,99325.09
2022-09-23T06:58:52.609Z,99322.16
2022-09-23T07:01:20.066Z,99325.25
2022-09-23T07:03:50.291Z,99327.31
2022-09-23T07:06:17.645Z,99327.44
2022-09-23T07:08:47.181Z,99321.63
2022-09-23T07:11:15.092Z,99324.16
2022-09-23T07:13:42.847Z,99321.56
2022-09-23T07:16:11.190Z,99309.81
2022-09-23T07:18:38.511Z,99318.03
2022-09-23T07:21:18.849Z,99320.53
2022-09-23T07:23:47.665Z,99318.75
2022-09-23T07:26:16.231Z,99314.94
2022-09-23T07:28:43.585Z,99313.97
2022-09-23T07:31:13.158Z,99309.22
2022-09-23T07:33:44.450Z,99306.97
2022-09-23T07:36:13.547Z,99307.19
2022-09-23T07:38:45.205Z,99299.22
2022-09-23T07:41:14.771Z,99304.91
2022-09-23T07:43:41.622Z,99296.75
2022-09-23T07:46:11.977Z,99296.75
2022-09-23T07:48:39.486Z,99296.97
2022-09-23T07:51:17.375Z,99293.22
2022-09-23T07:53:47.689Z,99301.63
2022-09-23T07:56:14.423Z,99295.19
2022-09-23T07:58:41.029Z,99290.34
2022-09-23T08:01:10.501Z,99294.53
2022-09-23T08:03:38.002Z,99283.41
2022-09-23T08:06:07.401Z,99285.22
2022-09-23T08:08:35.904Z,99282.44
2022-09-23T08:11:07.792Z,99284.56
2022-09-23T08:13:35.141Z,99281.88
2022-09-23T08:16:02.306Z,99278.06
2022-09-23T08:18:29.147Z,99281.16
2022-09-23T08:20:56.007Z,99283.97
2022-09-23T08:23:23.358Z,99283.41
2022-09-23T08:25:59.754Z,99282.63
2022-09-23T08:28:27.124Z,99284.03
2022-09-23T08:30:53.829Z,99282.00
2022-09-23T08:33:23.381Z,99280.06
2022-09-23T08:35:50.575Z,99281.03
2022-09-23T08:38:17.496Z,99282.69
2022-09-23T08:40:48.979Z,99275.38
2022-09-23T08:43:25.925Z,99273.41
2022-09-23T08:45:53.637Z,99265.47
2022-09-23T08:48:36.192Z,99270.28
2022-09-23T08:51:06.317Z,99264.19
2022-09-23T08:53:36.328Z,99260.25
2022-09-23T08:56:12.489Z,99256.50
2022-09-23T08:59:33.871Z,99259.25
2022-09-23T09:02:06.754Z,99258.94
2022-09-23T09:04:41.436Z,99253.44
2022-09-23T09:07:38.041Z,99266.28
2022-09-23T09:10:11.999Z,99262.84
2022-09-23T09:12:50.685Z,99256.09
2022-09-23T09:15:24.856Z,99253.69
2022-09-23T09:18:07.982Z,99252.28
2022-09-23T09:20:57.563Z,99248.44
2022-09-23T09:23:33.284Z,99255.59
2022-09-23T09:26:03.196Z,99252.69
2022-09-23T09:28:39.658Z,99250.16
2022-09-23T09:31:33.192Z,99246.41
2022-09-23T09:34:26.512Z,99245.63
2022-09-23T09:37:23.929Z,99244.00
2022-09-23T09:39:50.897Z,99248.38
2022-09-23T09:42:35.967Z,99233.63
2022-09-23T09:45:06.188Z,99238.63
2022-09-23T09:47:56.887Z,99231.06
2022-09-23T09:50:50.116Z,99225.13
2022-09-23T09:53:27.639Z,99223.16
2022-09-23T09:56:23.222Z,99220.84
2022-09-23T09:58:53.800Z,99207.31
2022-09-23T10:01:24.140Z,99215.75
2022-09-23T10:03:55.589Z,99205.69
2022-09-23T10:06:32.698Z,99208.34
2022-09-23T10:09:19.519Z,99207.53
2022-09-23T10:12:16.019Z,99203.03
2022-09-23T10:14:43.416Z,99202.19
2022-09-23T10:17:32.708Z,99202.97
2022-09-23T10:20:01.734Z,99199.28
2022-09-23T10:22:32.971Z,99197.81
2022-09-23T10:25:07.636Z,99201.88
2022-09-23T10:27:36.510Z,99192.81
2022-09-23T10:30:23.779Z,99191.91
2022-09-23T10:32:52.371Z,99192.88
2022-09-23T10:35:24.656Z,99183.59
2022-09-23T10:37:56.271Z,99183.28
2022-09-23T10:41:02.409Z,99184.81
2022-09-23T10:44:22.714Z,99186.34
2022-09-23T10:47:35.240Z,99189.53
2022-09-23T10:50:29.077Z,99180.19
2022-09-23T10:53:11.949Z,99167.97
2022-09-23T10:55:45.896Z,99173.16
2022-09-23T10:58:20.686Z,99167.75
2022-09-23T11:01:13.666Z,99162.16
2022-09-23T11:04:12.425Z,99166.34
2022-09-23T11:06:53.275Z,99153.88
2022-09-23T11:09:20.208Z,99149.13
2022-09-23T11:12:07.800Z,99144.72
2022-09-23T11:15:21.212Z,99138.31
2022-09-23T11:18:19.699Z,99138.59
2022-09-23T11:21:01.679Z,99130.91
2022-09-23T11:23:58.273Z,99129.78
2022-09-23T11:26:41.954Z,99123.25
2022-09-23T11:29:19.963Z,99118.31
2022-09-23T11:32:28.478Z,99111.75
2022-09-23T11:35:23.003Z,99111.19
2022-09-23T11:38:02.214Z,99116.25
2022-09-23T11:40:34.378Z,99108.41
2022-09-23T11:43:07.640Z,99106.06
2022-09-23T11:45:37.760Z,99104.59
2022-09-23T11:48:12.221Z,99106.00
2022-09-23T11:50:45.192Z,99093.59
2022-09-23T11:53:23.175Z,99096.56
2022-09-23T11:55:58.489Z,99098.75
2022-09-23T11:58:30.240Z,99087.19
2022-09-23T12:01:07.742Z,99078.31
2022-09-23T12:03:55.869Z,99078.38
2022-09-23T12:06:27.364Z,99071.72
2022-09-23T12:08:59.529Z,99065.34
2022-09-23T12:11:47.353Z,99071.63
2022-09-23T12:14:40.680Z,99059.34
2022-09-23T12:17:38.158Z,99060.91
2022-09-23T12:20:44.292Z,99051.13
2022-09-23T12:23:43.778Z,99059.28
2022-09-23T12:26:18.648Z,99056.38
2022-09-23T12:28:47.088Z,99051.28
2022-09-23T12:31:23.378Z,99059.94
2022-09-23T12:33:51.576Z,99043.19
2022-09-23T12:36:26.687Z,99030.47
2022-09-23T12:39:03.791Z,99036.31
2022-09-23T12:41:37.978Z,99033.78
2022-09-23T12:44:12.103Z,99032.78
2022-09-23T12:46:40.030Z,99030.09
2022-09-23T12:49:23.653Z,99032.25
2022-09-23T12:52:18.743Z,99030.28
2022-09-23T12:54:47.123Z,99030.13
2022-09-23T12:57:50.856Z,99030.03
2022-09-23T13:00:28.095Z,99017.06
2022-09-23T13:03:17.446Z,99028.13
2022-09-23T13:06:06.631Z,99022.00
2022-09-23T13:08:36.680Z,99017.75
2022-09-23T13:11:06.442Z,99005.59
2022-09-23T13:13:36.567Z,99000.63
2022-09-23T13:16:26.290Z,99002.94
2022-09-23T13:18:57.120Z,99001.91
2022-09-23T13:22:03.749Z,99004.03
2022-09-23T13:24:42.578Z,98994.16
2022-09-23T13:27:20.129Z,99001.91
2022-09-23T13:29:52.046Z,98987.53
2022-09-23T13:32:21.318Z,98985.16
2022-09-23T13:34:58.287Z,98983.94
2022-09-23T13:37:47.799Z,98983.59
2022-09-23T13:40:27.080Z,98978.97
2022-09-23T13:43:03.404Z,98983.06
2022-09-23T13:45:34.381Z,98983.41
2022-09-23T13:48:12.081Z,98979.50
2022-09-23T13:50:41.387Z,98975.28
2022-09-23T13:53:11.096Z,98978.56
2022-09-23T13:55:39.408Z,98981.59
2022-09-23T13:58:17.790Z,98968.44
2022-09-23T14:00:45.121Z,98971.78
2022-09-23T14:03:36.196Z,98970.53
2022-09-23T14:06:11.769Z,98966.50
2022-09-23T14:08:39.406Z,98969.22
2022-09-23T14:11:06.531Z,98963.44
2022-09-23T14:13:40.612Z,98965.25
2022-09-23T14:16:10.436Z,98962.47
2022-09-23T14:18:44.551Z,98947.59
2022-09-23T14:21:37.237Z,98945.75
2022-09-23T14:24:29.617Z,98936.47
2022-09-23T14:27:14.236Z,98935.81
2022-09-23T14:29:44.320Z,98936.88
2022-09-23T14:32:18.647Z,98928.34
2022-09-23T14:35:18.871Z,98928.81
2022-09-23T14:38:07.078Z,98923.09
2022-09-23T14:40:36.214Z,98925.56
2022-09-23T14:43:24.393Z,98923.66
2022-09-23T14:45:53.163Z,98925.91
2022-09-23T14:48:33.590Z,98920.81
2022-09-23T14:51:03.095Z,98913.94
2022-09-23T14:53:41.461Z,98911.44
2022-09-23T14:56:21.949Z,98916.34
2022-09-23T14:58:54.670Z,98915.97
2022-09-23T15:01:36.096Z,98913.94
2022-09-23T15:04:16.788Z,98909.78
2022-09-23T15:06:49.510Z,98903.91
2022-09-23T15:09:21.121Z,98898.13
2022-09-23T15:11:48.389Z,98900.34
2022-09-23T15:14:36.701Z,98894.41
2022-09-23T15:17:03.981Z,98899.31
2022-09-23T15:19:31.771Z,98894.19
2022-09-23T15:21:58.581Z,98897.91
2022-09-23T15:24:40.847Z,98902.38
2022-09-23T15:27:26.310Z,98901.56
2022-09-23T15:29:56.244Z,98895.56
2022-09-23T15:32:22.980Z,98897.38
2022-09-23T15:34:50.925Z,98911.28
2022-09-23T15:37:24.387Z,98905.88
2022-09-23T15:39:54.426Z,98907.50
2022-09-23T15:42:21.537Z,98903.44
2022-09-23T15:44:49.592Z,98906.88
2022-09-23T15:47:18.948Z,98893.09
2022-09-23T15:49:48.663Z,98900.06
2022-09-23T15:52:16.292Z,98892.72
2022-09-23T15:54:44.343Z,98893.16
2022-09-23T15:57:11.630Z,98887.34
2022-09-23T15:59:38.381Z,98882.41
2022-09-23T16:02:20.453Z,98874.00
2022-09-23T16:04:50.434Z,98880.16
2022-09-23T16:07:17.286Z,98867.81
2022-09-23T16:09:43.961Z,98872.06
2022-09-23T16:12:12.085Z,98867.06
2022-09-23T16:14:38.749Z,98862.72
2022-09-23T16:17:05.671Z,98859.97
2022-09-23T16:19:34.406Z,98864.06
2022-09-23T16:22:01.203Z,98870.56
2022-09-23T16:24:28.410Z,98872.81
2022-09-23T16:27:00.065Z,98873.78
2022-09-23T16:29:27.782Z,98870.88
2022-09-23T16:31:55.814Z,98867.94
2022-09-23T16:34:22.814Z,98870.84
2022-09-23T16:36:49.616Z,98864.75
2022-09-23T16:39:16.324Z,98875.13
2022-09-23T16:41:43.762Z,98873.59
2022-09-23T16:44:12.686Z,98870.25
2022-09-23T16:46:43.003Z,98865.69
2022-09-23T16:49:12.242Z,98870.78
2022-09-23T16:51:40.027Z,98876.78
2022-09-23T16:54:10.465Z,98872.69
2022-09-23T16:56:39.316Z,98872.13
2022-09-23T16:59:06.253Z,98872.13
2022-09-23T17:01:51.793Z,98870.22
2022-09-23T17:04:19.704Z,98883.13
2022-09-23T17:06:50.798Z,98878.38
2022-09-23T17:09:19.083Z,98872.41
2022-09-23T17:11:48.733Z,98878.00
2022-09-23T17:14:16.201Z,98874.41
2022-09-23T17:16:43.274Z,98868.53
2022-09-23T17:19:11.811Z,98876.34
2022-09-23T17:21:39.351Z,98875.41
2022-09-23T17:24:06.531Z,98869.78
2022-09-23T17:26:33.242Z,98873.31
2022-09-23T17:29:02.175Z,98875.00
2022-09-23T17:31:29.690Z,98886.47
2022-09-23T17:33:56.593Z,98876.59
2022-09-23T17:36:23.467Z,98888.06
2022-09-23T17:38:54.065Z,98880.75
2022-09-23T17:41:21.169Z,98881.25
2022-09-23T17:43:48.592Z,98875.50
2022-09-23T17:46:18.341Z,98880.78
2022-09-23T17:48:45.485Z,98873.38
2022-09-23T17:51:16.099Z,98875.97
2022-09-23T17:53:45.614Z,98864.72
2022-09-23T17:56:26.522Z,98867.06
2022-09-23T17:58:53.913Z,98872.47
2022-09-23T18:01:23.946Z,98879.31
2022-09-23T18:04:00.967Z,98880.00
2022-09-23T18:06:29.722Z,98882.97
2022-09-23T18:08:56.540Z,98878.38
2022-09-23T18:11:25.402Z,98884.00
2022-09-23T18:13:57.701Z,98875.19
2022-09-23T18:16:27.066Z,98884.59
2022-09-23T18:18:55.603Z,98884.91
2022-09-23T18:21:24.887Z,98884.75
2022-09-23T18:23:51.606Z,98882.78
2022-09-23T18:26:21.057Z,98881.53
2022-09-23T18:28:48.487Z,98868.63
2022-09-23T18:31:17.207Z,98882.53
2022-09-23T18:33:48.434Z,98881.53
2022-09-23T18:36:15.133Z,98878.09
2022-09-23T18:38:41.956Z,98887.69
2022-09-23T18:41:09.564Z,98882.41
2022-09-23T18:43:41.314Z,98883.88
2022-09-23T18:46:17.289Z,98889.84
2022-09-23T18:49:03.195Z,98882.41
2022-09-23T18:51:30.422Z,98890.53
2022-09-23T18:53:58.740Z,98884.72
2022-09-23T18:56:42.252Z,98881.25
2022-09-23T18:59:13.089Z,98876.34
2022-09-23T19:01:39.906Z,98877.34
2022-09-23T19:04:07.460Z,98880.41
2022-09-23T19:06:35.264Z,98879.44
2022-09-23T19:09:02.328Z,98878.97
2022-09-23T19:11:29.073Z,98879.28
2022-09-23T19:14:02.227Z,98877.47
2022-09-23T19:16:31.870Z,98885.72
2022-09-23T19:19:00.076Z,98880.59
2022-09-23T19:21:27.860Z,98878.97
2022-09-23T19:23:56.954Z,98889.00
2022-09-23T19:26:26.421Z,98879.63
2022-09-23T19:28:57.335Z,98888.16
2022-09-23T19:31:27.155Z,98888.84
2022-09-23T19:33:56.710Z,98886.34
2022-09-23T19:36:31.315Z,98880.75
2022-09-23T19:39:04.114Z,98878.78
2022-09-23T19:41:32.661Z,98884.53
2022-09-23T19:44:03.505Z,98875.94
2022-09-23T19:46:31.300Z,98875.28
2022-09-23T19:48:58.914Z,98875.28
2022-09-23T19:51:25.782Z,98864.09
2022-09-23T19:53:52.846Z,98859.78
2022-09-23T19:56:20.228Z,98870.66
2022-09-23T19:58:48.744Z,98873.97
2022-09-23T20:01:16.446Z,98871.00
2022-09-23T20:03:47.250Z,98862.09
2022-09-23T20:06:15.051Z,98871.16
2022-09-23T20:08:42.373Z,98871.00
2022-09-23T20:11:11.365Z,98867.19
2022-09-23T20:13:42.741Z,98866.06
2022-09-23T20:16:12.194Z,98878.91
2022-09-23T20:18:39.317Z,98872.75
2022-09-23T20:21:06.915Z,98863.66
2022-09-23T20:23:34.428Z,98868.25
2022-09-23T20:26:20.716Z,98866.78
2022-09-23T20:28:48.075Z,98860.97
2022-09-23T20:31:15.561Z,98866.59
2022-09-23T20:33:42.323Z,98863.31
2022-09-23T20:36:15.713Z,98866.00
2022-09-23T20:38:42.434Z,98861.31
2022-09-23T20:41:09.545Z,98857.03
2022-09-23T20:43:36.611Z,98853.97
2022-09-23T20:46:05.515Z,98861.88
2022-09-23T20:48:32.416Z,98860.19
2022-09-23T20:51:03.758Z,98855.63
2022-09-23T20:53:31.301Z,98852.72
2022-09-23T20:55:58.814Z,98849.13
2022-09-23T20:58:30.185Z,98852.78
2022-09-23T21:01:01.936Z,98850.81
2022-09-23T21:03:32.090Z,98844.06
2022-09-23T21:06:03.658Z,98843.56
2022-09-23T21:08:31.465Z,98841.91
2022-09-23T21:10:59.100Z,98845.34
2022-09-23T21:13:26.045Z,98842.53
2022-09-23T21:15:52.761Z,98847.78
2022-09-23T21:18:22.499Z,98840.84
2022-09-23T21:20:59.967Z,98841.97
2022-09-23T21:23:32.747Z,98845.66
2022-09-23T21:26:03.777Z,98835.03
2022-09-23T21:28:32.312Z,98835.03
2022-09-23T21:31:04.323Z,98835.72
2022-09-23T21:33:31.260Z,98830.09
2022-09-23T21:36:03.757Z,98825.34
2022-09-23T21:38:31.440Z,98831.75
2022-09-23T21:40:59.534Z,98830.25
2022-09-23T21:43:33.650Z,98828.41
2022-09-23T21:46:06.187Z,98830.84
2022-09-23T21:48:37.503Z,98830.19
2022-09-23T21:51:09.263Z,98829.81
2022-09-23T21:53:39.871Z,98838.53
2022-09-23T21:56:20.445Z,98835.75
2022-09-23T21:58:47.888Z,98834.09
2022-09-23T22:01:19.821Z,98829.81
2022-09-23T22:03:52.007Z,98828.69
2022-09-23T22:06:21.614Z,98830.28
2022-09-23T22:08:54.871Z,98832.72
2022-09-23T22:11:41.885Z,98834.53
2022-09-23T22:14:11.006Z,98838.28
2022-09-23T22:16:37.811Z,98841.06
2022-09-23T22:19:07.969Z,98834.66
2022-09-23T22:21:36.783Z,98821.31
2022-09-23T22:24:04.960Z,98822.66
2022-09-23T22:26:33.940Z,98820.84
2022-09-23T22:29:19.460Z,98814.50
2022-09-23T22:32:04.804Z,98815.44
2022-09-23T22:34:48.969Z,98820.66
2022-09-23T22:37:18.319Z,98824.97
2022-09-23T22:39:45.317Z,98824.06
2022-09-23T22:42:13.280Z,98821.53
2022-09-23T22:44:40.100Z,98807.16
2022-09-23T22:47:07.044Z,98825.25
2022-09-23T22:49:34.057Z,98822.25
2022-09-23T22:52:04.324Z,98818.69
2022-09-23T22:54:34.021Z,98813.91
2022-09-23T22:57:03.399Z,98814.59
2022-09-23T22:59:30.286Z,98810.22
2022-09-23T23:01:57.692Z,98811.59
2022-09-23T23:04:24.749Z,98818.22
2022-09-23T23:06:51.715Z,98810.03
2022-09-23T23:09:19.326Z,98803.72
2022-09-23T23:11:46.156Z,98804.69
2022-09-23T23:14:15.377Z,98812.84
2022-09-23T23:16:42.652Z,98807.91
2022-09-23T23:19:13.366Z,98806.84
2022-09-23T23:21:43.499Z,98805.97
2022-09-23T23:24:20.039Z,98802.53
2022-09-23T23:26:47.224Z,98808.56
2022-09-23T23:29:15.479Z,98805.25
2022-09-23T23:31:42.151Z,98812.53
2022-09-23T23:34:12.542Z,98806.00
2022-09-23T23:36:39.616Z,98806.69
2022-09-23T23:39:07.759Z,98806.25
2022-09-23T23:41:34.523Z,98807.56
2022-09-23T23:44:01.759Z,98805.25
2022-09-23T23:46:30.206Z,98797.00
2022-09-23T23:48:57.796Z,98803.09
2022-09-23T23:51:28.062Z,98809.38
2022-09-23T23:53:55.210Z,98803.28
2022-09-23T23:56:23.791Z,98801.41
2022-09-23T23:58:57.300Z,98796.56
